sensor_id;sensor_type;location;lat;lon;timestamp;pressure;altitude;pressure_sealevel;temperature;humidity
19811;BME280;10065;49.632;8.346;2023-02-02T00:01:27;101175.47;;;9.10;68.58
19811;BME280;10065;49.632;8.346;2023-02-02T00:03:55;101175.34;;;9.11;68.52
19811;BME280;10065;49.632;8.346;2023-02-02T00:06:25;101178.09;;;9.10;68.64
19811;BME280;10065;49.632;8.346;2023-02-02T00:08:56;101177.75;;;9.14;68.66
19811;BME280;10065;49.632;8.346;2023-02-02T00:11:25;101172.31;;;9.16;68.44
19811;BME280;10065;49.632;8.346;2023-02-02T00:13:53;101172.22;;;9.17;68.62
19811;BME280;10065;49.632;8.346;2023-02-02T00:16:34;101176.78;;;9.15;68.62
19811;BME280;10065;49.632;8.346;2023-02-02T00:19:04;101174.00;;;9.17;68.72
19811;BME280;10065;49.632;8.346;2023-02-02T00:21:33;101175.56;;;9.19;68.54
19811;BME280;10065;49.632;8.346;2023-02-02T00:24:03;101181.59;;;9.21;68.64
19811;BME280;10065;49.632;8.346;2023-02-02T00:26:31;101181.72;;;9.20;68.79
19811;BME280;10065;49.632;8.346;2023-02-02T00:28:59;101187.47;;;9.25;68.66
19811;BME280;10065;49.632;8.346;2023-02-02T00:31:26;101191.81;;;9.26;68.74
19811;BME280;10065;49.632;8.346;2023-02-02T00:33:54;101187.47;;;9.25;68.54
19811;BME280;10065;49.632;8.346;2023-02-02T00:36:22;101182.31;;;9.23;68.78
19811;BME280;10065;49.632;8.346;2023-02-02T00:38:50;101187.84;;;9.20;69.09
19811;BME280;10065;49.632;8.346;2023-02-02T00:41:20;101177.16;;;9.22;68.85
19811;BME280;10065;49.632;8.346;2023-02-02T00:43:48;101189.41;;;9.23;69.10
19811;BME280;10065;49.632;8.346;2023-02-02T00:46:38;101184.47;;;9.29;68.62
19811;BME280;10065;49.632;8.346;2023-02-02T00:49:04;101183.50;;;9.30;68.73
19811;BME280;10065;49.632;8.346;2023-02-02T00:51:34;101186.16;;;9.30;68.76
19811;BME280;10065;49.632;8.346;2023-02-02T00:54:02;101181.09;;;9.27;68.62
19811;BME280;10065;49.632;8.346;2023-02-02T00:56:32;101187.13;;;9.29;68.81
19811;BME280;10065;49.632;8.346;2023-02-02T00:58:59;101184.59;;;9.28;68.88
19811;BME280;10065;49.632;8.346;2023-02-02T01:01:27;101182.91;;;9.27;68.84
19811;BME280;10065;49.632;8.346;2023-02-02T01:03:55;101183.88;;;9.26;68.84
19811;BME280;10065;49.632;8.346;2023-02-02T01:06:24;101182.91;;;9.27;68.59
19811;BME280;10065;49.632;8.346;2023-02-02T01:08:52;101194.09;;;9.30;68.73
19811;BME280;10065;49.632;8.346;2023-02-02T01:11:20;101188.81;;;9.30;68.87
19811;BME280;10065;49.632;8.346;2023-02-02T01:13:49;101195.78;;;9.31;68.88
19811;BME280;10065;49.632;8.346;2023-02-02T01:16:17;101194.78;;;9.32;68.67
19811;BME280;10065;49.632;8.346;2023-02-02T01:18:48;101198.44;;;9.31;68.58
19811;BME280;10065;49.632;8.346;2023-02-02T01:21:16;101197.09;;;9.37;68.45
19811;BME280;10065;49.632;8.346;2023-02-02T01:23:43;101202.16;;;9.40;68.25
19811;BME280;10065;49.632;8.346;2023-02-02T01:26:12;101204.19;;;9.36;68.39
19811;BME280;10065;49.632;8.346;2023-02-02T01:28:40;101194.06;;;9.41;68.29
19811;BME280;10065;49.632;8.346;2023-02-02T01:31:11;101193.97;;;9.32;68.45
19811;BME280;10065;49.632;8.346;2023-02-02T01:33:39;101194.09;;;9.30;69.06
19811;BME280;10065;49.632;8.346;2023-02-02T01:36:10;101192.03;;;9.34;68.89
19811;BME280;10065;49.632;8.346;2023-02-02T01:38:38;101195.78;;;9.31;68.98
19811;BME280;10065;49.632;8.346;2023-02-02T01:41:11;101199.41;;;9.30;69.13
19811;BME280;10065;49.632;8.346;2023-02-02T01:43:52;101205.88;;;9.26;69.40
19811;BME280;10065;49.632;8.346;2023-02-02T01:46:24;101204.81;;;9.29;69.33
19811;BME280;10065;49.632;8.346;2023-02-02T01:48:57;101208.28;;;9.29;69.31
19811;BME280;10065;49.632;8.346;2023-02-02T01:51:39;101203.47;;;9.34;69.21
19811;BME280;10065;49.632;8.346;2023-02-02T01:54:19;101211.78;;;9.30;69.53
19811;BME280;10065;49.632;8.346;2023-02-02T01:56:51;101200.34;;;9.29;69.54
19811;BME280;10065;49.632;8.346;2023-02-02T01:59:21;101205.38;;;9.32;69.47
19811;BME280;10065;49.632;8.346;2023-02-02T02:01:52;101203.00;;;9.29;69.60
19811;BME280;10065;49.632;8.346;2023-02-02T02:04:21;101201.09;;;9.31;69.29
19811;BME280;10065;49.632;8.346;2023-02-02T02:06:50;101204.47;;;9.22;69.93
19811;BME280;10065;49.632;8.346;2023-02-02T02:09:19;101200.47;;;9.17;70.30
19811;BME280;10065;49.632;8.346;2023-02-02T02:11:46;101206.50;;;9.19;70.38
19811;BME280;10065;49.632;8.346;2023-02-02T02:14:15;101207.94;;;9.23;70.29
19811;BME280;10065;49.632;8.346;2023-02-02T02:17:11;101203.00;;;9.29;70.10
19811;BME280;10065;49.632;8.346;2023-02-02T02:26:47;101212.50;;;9.32;70.10
19811;BME280;10065;49.632;8.346;2023-02-02T02:32:26;101211.53;;;9.33;70.26
19811;BME280;10065;49.632;8.346;2023-02-02T02:35:04;101207.78;;;9.24;70.91
19811;BME280;10065;49.632;8.346;2023-02-02T02:37:43;101191.44;;;9.30;70.58
19811;BME280;10065;49.632;8.346;2023-02-02T02:40:19;101207.22;;;9.32;70.62
19811;BME280;10065;49.632;8.346;2023-02-02T02:42:51;101214.31;;;9.31;70.83
19811;BME280;10065;49.632;8.346;2023-02-02T02:45:21;101208.03;;;9.32;70.96
19811;BME280;10065;49.632;8.346;2023-02-02T02:47:52;101211.78;;;9.30;71.65
19811;BME280;10065;49.632;8.346;2023-02-02T02:50:21;101211.06;;;9.28;72.13
19811;BME280;10065;49.632;8.346;2023-02-02T02:52:55;101215.63;;;9.26;72.32
19811;BME280;10065;49.632;8.346;2023-02-02T02:55:24;101216.22;;;9.29;71.91
19811;BME280;10065;49.632;8.346;2023-02-02T02:58:03;101214.06;;;9.34;71.46
19811;BME280;10065;49.632;8.346;2023-02-02T03:00:44;101209.59;;;9.35;71.60
19811;BME280;10065;49.632;8.346;2023-02-02T03:03:22;101221.41;;;9.31;71.60
19811;BME280;10065;49.632;8.346;2023-02-02T03:06:00;101207.91;;;9.34;71.47
19811;BME280;10065;49.632;8.346;2023-02-02T03:08:31;101200.69;;;9.36;71.46
19811;BME280;10065;49.632;8.346;2023-02-02T03:11:00;101201.53;;;9.36;71.63
19811;BME280;10065;49.632;8.346;2023-02-02T03:13:31;101204.81;;;9.29;72.22
19811;BME280;10065;49.632;8.346;2023-02-02T03:16:00;101211.66;;;9.31;72.23
19811;BME280;10065;49.632;8.346;2023-02-02T03:18:31;101215.00;;;9.33;72.12
19811;BME280;10065;49.632;8.346;2023-02-02T03:21:00;101226.09;;;9.38;71.97
19811;BME280;10065;49.632;8.346;2023-02-02T03:23:28;101226.94;;;9.39;71.91
19811;BME280;10065;49.632;8.346;2023-02-02T03:25:56;101214.44;;;9.41;71.97
19811;BME280;10065;49.632;8.346;2023-02-02T03:28:25;101219.34;;;9.34;72.42
19811;BME280;10065;49.632;8.346;2023-02-02T03:30:54;101220.06;;;9.36;72.50
19811;BME280;10065;49.632;8.346;2023-02-02T03:33:24;101214.66;;;9.38;72.42
19811;BME280;10065;49.632;8.346;2023-02-02T03:35:53;101213.59;;;9.40;72.31
19811;BME280;10065;49.632;8.346;2023-02-02T03:38:21;101211.91;;;9.39;72.18
19811;BME280;10065;49.632;8.346;2023-02-02T03:40:49;101211.41;;;9.34;72.51
19811;BME280;10065;49.632;8.346;2023-02-02T03:43:21;101214.16;;;9.33;73.01
19811;BME280;10065;49.632;8.346;2023-02-02T03:45:55;101206.50;;;9.30;73.28
19811;BME280;10065;49.632;8.346;2023-02-02T03:48:23;101223.78;;;9.34;73.59
19811;BME280;10065;49.632;8.346;2023-02-02T03:50:50;101220.06;;;9.36;73.59
19811;BME280;10065;49.632;8.346;2023-02-02T03:53:20;101215.50;;;9.38;73.34
19811;BME280;10065;49.632;8.346;2023-02-02T03:55:48;101224.63;;;9.34;73.40
19811;BME280;10065;49.632;8.346;2023-02-02T03:58:16;101233.06;;;9.39;73.13
19811;BME280;10065;49.632;8.346;2023-02-02T04:00:47;101225.13;;;9.39;72.56
19811;BME280;10065;49.632;8.346;2023-02-02T04:03:15;101229.69;;;9.37;72.69
19811;BME280;10065;49.632;8.346;2023-02-02T04:05:42;101229.69;;;9.37;72.40
19811;BME280;10065;49.632;8.346;2023-02-02T04:08:10;101233.31;;;9.36;72.38
19811;BME280;10065;49.632;8.346;2023-02-02T04:10:40;101231.97;;;9.42;71.90
19811;BME280;10065;49.632;8.346;2023-02-02T04:13:08;101236.31;;;9.43;71.72
19811;BME280;10065;49.632;8.346;2023-02-02T04:15:36;101234.25;;;9.47;71.58
19811;BME280;10065;49.632;8.346;2023-02-02T04:18:03;101235.09;;;9.47;71.55
19811;BME280;10065;49.632;8.346;2023-02-02T04:20:31;101235.72;;;9.39;71.59
19811;BME280;10065;49.632;8.346;2023-02-02T04:22:59;101236.19;;;9.44;71.47
19811;BME280;10065;49.632;8.346;2023-02-02T04:25:26;101237.16;;;9.43;71.30
19811;BME280;10065;49.632;8.346;2023-02-02T04:27:56;101233.78;;;9.41;71.67
19811;BME280;10065;49.632;8.346;2023-02-02T04:30:23;101241.84;;;9.40;71.99
19811;BME280;10065;49.632;8.346;2023-02-02T04:32:51;101230.88;;;9.44;71.98
19811;BME280;10065;49.632;8.346;2023-02-02T04:35:18;101242.09;;;9.48;71.82
19811;BME280;10065;49.632;8.346;2023-02-02T04:37:46;101238.59;;;9.48;71.90
19811;BME280;10065;49.632;8.346;2023-02-02T04:40:14;101236.91;;;9.47;71.99
19811;BME280;10065;49.632;8.346;2023-02-02T04:42:41;101243.16;;;9.46;71.96
19811;BME280;10065;49.632;8.346;2023-02-02T04:45:12;101239.31;;;9.50;71.61
19811;BME280;10065;49.632;8.346;2023-02-02T04:47:39;101236.19;;;9.44;71.56
19811;BME280;10065;49.632;8.346;2023-02-02T04:50:08;101233.41;;;9.46;71.48
19811;BME280;10065;49.632;8.346;2023-02-02T04:52:37;101235.69;;;9.51;71.28
19811;BME280;10065;49.632;8.346;2023-02-02T04:55:05;101233.53;;;9.44;71.18
19811;BME280;10065;49.632;8.346;2023-02-02T04:57:33;101236.19;;;9.44;71.12
19811;BME280;10065;49.632;8.346;2023-02-02T05:00:00;101244.25;;;9.43;71.29
19811;BME280;10065;49.632;8.346;2023-02-02T05:02:29;101251.59;;;9.39;71.59
19811;BME280;10065;49.632;8.346;2023-02-02T05:04:57;101252.06;;;9.33;71.62
19811;BME280;10065;49.632;8.346;2023-02-02T05:07:25;101258.31;;;9.32;71.43
19811;BME280;10065;49.632;8.346;2023-02-02T05:09:53;101261.47;;;9.37;71.46
19811;BME280;10065;49.632;8.346;2023-02-02T05:12:20;101264.97;;;9.38;71.77
19811;BME280;10065;49.632;8.346;2023-02-02T05:14:48;101264.00;;;9.39;71.66
19811;BME280;10065;49.632;8.346;2023-02-02T05:17:15;101266.75;;;9.37;71.78
19811;BME280;10065;49.632;8.346;2023-02-02T05:19:44;101268.19;;;9.41;71.76
19811;BME280;10065;49.632;8.346;2023-02-02T05:22:12;101263.88;;;9.40;71.57
19811;BME280;10065;49.632;8.346;2023-02-02T05:24:40;101264.00;;;9.39;71.75
19811;BME280;10065;49.632;8.346;2023-02-02T05:27:08;101270.13;;;9.39;71.75
19811;BME280;10065;49.632;8.346;2023-02-02T05:29:35;101282.41;;;9.40;71.66
19811;BME280;10065;49.632;8.346;2023-02-02T05:32:03;101276.63;;;9.47;71.43
19811;BME280;10065;49.632;8.346;2023-02-02T05:34:31;101278.78;;;9.41;71.76
19811;BME280;10065;49.632;8.346;2023-02-02T05:37:00;101294.31;;;9.35;72.18
19811;BME280;10065;49.632;8.346;2023-02-02T05:39:28;101294.91;;;9.38;72.14
19811;BME280;10065;49.632;8.346;2023-02-02T05:41:56;101289.28;;;9.32;72.14
19811;BME280;10065;49.632;8.346;2023-02-02T05:44:24;101299.00;;;9.31;72.27
19811;BME280;10065;49.632;8.346;2023-02-02T05:46:52;101308.50;;;9.34;71.92
19811;BME280;10065;49.632;8.346;2023-02-02T05:49:20;101308.50;;;9.34;71.67
19811;BME280;10065;49.632;8.346;2023-02-02T05:51:49;101298.28;;;9.29;71.86
19811;BME280;10065;49.632;8.346;2023-02-02T05:54:19;101308.38;;;9.24;72.31
19811;BME280;10065;49.632;8.346;2023-02-02T05:56:48;101317.03;;;9.26;72.41
19811;BME280;10065;49.632;8.346;2023-02-02T05:59:16;101313.66;;;9.24;72.76
19811;BME280;10065;49.632;8.346;2023-02-02T06:01:44;101325.47;;;9.31;72.73
19811;BME280;10065;49.632;8.346;2023-02-02T06:04:13;101320.53;;;9.38;72.71
19811;BME280;10065;49.632;8.346;2023-02-02T06:06:41;101318.75;;;9.38;72.82
19811;BME280;10065;49.632;8.346;2023-02-02T06:09:09;101313.19;;;9.41;73.03
19811;BME280;10065;49.632;8.346;2023-02-02T06:11:38;101318.63;;;9.40;73.12
19811;BME280;10065;49.632;8.346;2023-02-02T06:14:06;101319.69;;;9.37;73.28
19811;BME280;10065;49.632;8.346;2023-02-02T06:16:34;101312.72;;;9.36;73.05
19811;BME280;10065;49.632;8.346;2023-02-02T06:19:02;101320.66;;;9.36;73.46
19811;BME280;10065;49.632;8.346;2023-02-02T06:21:29;101329.66;;;9.34;73.84
19811;BME280;10065;49.632;8.346;2023-02-02T06:23:58;101338.34;;;9.36;73.68
19811;BME280;10065;49.632;8.346;2023-02-02T06:26:27;101329.44;;;9.37;73.64
19811;BME280;10065;49.632;8.346;2023-02-02T06:28:56;101338.97;;;9.39;73.63
19811;BME280;10065;49.632;8.346;2023-02-02T06:31:24;101339.44;;;9.44;73.35
19811;BME280;10065;49.632;8.346;2023-02-02T06:33:53;101330.66;;;9.44;73.46
19811;BME280;10065;49.632;8.346;2023-02-02T06:36:22;101332.22;;;9.47;73.17
19811;BME280;10065;49.632;8.346;2023-02-02T06:38:52;101337.97;;;9.52;72.61
19811;BME280;10065;49.632;8.346;2023-02-02T06:41:20;101340.63;;;9.52;72.77
19811;BME280;10065;49.632;8.346;2023-02-02T06:43:48;101346.66;;;9.54;72.63
19811;BME280;10065;49.632;8.346;2023-02-02T06:46:18;101332.94;;;9.49;72.54
19811;BME280;10065;49.632;8.346;2023-02-02T06:48:46;101329.56;;;9.47;72.95
19811;BME280;10065;49.632;8.346;2023-02-02T06:51:14;101326.81;;;9.48;72.99
19811;BME280;10065;49.632;8.346;2023-02-02T06:53:41;101328.22;;;9.52;72.67
19811;BME280;10065;49.632;8.346;2023-02-02T06:56:11;101335.00;;;9.56;72.46
19811;BME280;10065;49.632;8.346;2023-02-02T06:58:39;101326.09;;;9.57;72.01
19811;BME280;10065;49.632;8.346;2023-02-02T07:01:09;101328.47;;;9.60;71.99
19811;BME280;10065;49.632;8.346;2023-02-02T07:03:39;101323.91;;;9.51;72.25
19811;BME280;10065;49.632;8.346;2023-02-02T07:06:12;101313.94;;;9.55;72.14
19811;BME280;10065;49.632;8.346;2023-02-02T07:08:40;101317.03;;;9.60;71.99
19811;BME280;10065;49.632;8.346;2023-02-02T07:11:09;101321.38;;;9.61;71.95
19811;BME280;10065;49.632;8.346;2023-02-02T07:13:41;101316.91;;;9.61;71.95
19811;BME280;10065;49.632;8.346;2023-02-02T07:16:10;101326.94;;;9.58;71.92
19811;BME280;10065;49.632;8.346;2023-02-02T07:18:40;101330.28;;;9.60;72.24
19811;BME280;10065;49.632;8.346;2023-02-02T07:21:15;101337.16;;;9.62;71.92
19811;BME280;10065;49.632;8.346;2023-02-02T07:23:43;101346.78;;;9.63;71.87
19811;BME280;10065;49.632;8.346;2023-02-02T07:26:12;101354.25;;;9.58;71.95
19811;BME280;10065;49.632;8.346;2023-02-02T07:28:40;101356.91;;;9.58;72.18
19811;BME280;10065;49.632;8.346;2023-02-02T07:31:12;101348.97;;;9.58;72.25
19811;BME280;10065;49.632;8.346;2023-02-02T07:33:43;101356.53;;;9.63;72.08
19811;BME280;10065;49.632;8.346;2023-02-02T07:36:13;101359.41;;;9.60;72.22
19811;BME280;10065;49.632;8.346;2023-02-02T07:38:42;101355.69;;;9.62;72.05
19811;BME280;10065;49.632;8.346;2023-02-02T07:41:10;101364.47;;;9.63;72.01
19811;BME280;10065;49.632;8.346;2023-02-02T07:43:38;101367.13;;;9.63;72.07
19811;BME280;10065;49.632;8.346;2023-02-02T07:46:07;101352.31;;;9.60;71.91
19811;BME280;10065;49.632;8.346;2023-02-02T07:48:38;101346.91;;;9.62;71.65
19811;BME280;10065;49.632;8.346;2023-02-02T07:51:10;101352.19;;;9.62;71.50
19811;BME280;10065;49.632;8.346;2023-02-02T07:53:38;101353.16;;;9.61;71.61
19811;BME280;10065;49.632;8.346;2023-02-02T07:56:12;101348.81;;;9.60;71.50
19811;BME280;10065;49.632;8.346;2023-02-02T07:58:41;101351.34;;;9.61;71.50
19811;BME280;10065;49.632;8.346;2023-02-02T08:01:11;101359.06;;;9.64;71.40
19811;BME280;10065;49.632;8.346;2023-02-02T08:03:39;101370.72;;;9.62;71.32
19811;BME280;10065;49.632;8.346;2023-02-02T08:06:12;101370.00;;;9.60;71.63
19811;BME280;10065;49.632;8.346;2023-02-02T08:08:40;101379.63;;;9.61;71.38
19811;BME280;10065;49.632;8.346;2023-02-02T08:11:09;101390.47;;;9.58;71.50
19811;BME280;10065;49.632;8.346;2023-02-02T08:13:37;101387.56;;;9.61;71.64
19811;BME280;10065;49.632;8.346;2023-02-02T08:16:06;101376.03;;;9.62;71.39
19811;BME280;10065;49.632;8.346;2023-02-02T08:18:34;101376.75;;;9.53;72.07
19811;BME280;10065;49.632;8.346;2023-02-02T08:21:04;101373.13;;;9.54;72.13
19811;BME280;10065;49.632;8.346;2023-02-02T08:23:35;101371.56;;;9.62;71.78
19811;BME280;10065;49.632;8.346;2023-02-02T08:26:10;101366.91;;;9.66;71.50
19811;BME280;10065;49.632;8.346;2023-02-02T08:28:38;101367.25;;;9.72;71.28
19811;BME280;10065;49.632;8.346;2023-02-02T08:31:08;101369.50;;;9.77;70.92
19811;BME280;10065;49.632;8.346;2023-02-02T08:33:36;101375.31;;;9.82;70.69
19811;BME280;10065;49.632;8.346;2023-02-02T08:36:08;101376.28;;;9.81;70.62
19811;BME280;10065;49.632;8.346;2023-02-02T08:38:39;101359.88;;;9.87;70.01
19811;BME280;10065;49.632;8.346;2023-02-02T08:41:08;101366.97;;;9.87;70.25
19811;BME280;10065;49.632;8.346;2023-02-02T08:43:38;101375.53;;;9.90;69.95
19811;BME280;10065;49.632;8.346;2023-02-02T08:46:07;101389.88;;;9.99;69.47
19811;BME280;10065;49.632;8.346;2023-02-02T08:48:36;101393.59;;;9.96;69.36
19811;BME280;10065;49.632;8.346;2023-02-02T08:51:05;101396.25;;;9.96;69.37
19811;BME280;10065;49.632;8.346;2023-02-02T08:53:33;101404.31;;;9.95;69.46
19811;BME280;10065;49.632;8.346;2023-02-02T08:56:04;101411.91;;;9.99;69.35
19811;BME280;10065;49.632;8.346;2023-02-02T08:58:33;101407.56;;;10.09;69.01
19811;BME280;10065;49.632;8.346;2023-02-02T09:01:05;101412.59;;;10.12;68.79
19811;BME280;10065;49.632;8.346;2023-02-02T09:03:33;101411.19;;;10.08;68.90
19811;BME280;10065;49.632;8.346;2023-02-02T09:06:05;101403.69;;;10.13;68.62
19811;BME280;10065;49.632;8.346;2023-02-02T09:08:33;101415.13;;;10.14;68.57
19811;BME280;10065;49.632;8.346;2023-02-02T09:11:04;101399.13;;;10.04;68.98
19811;BME280;10065;49.632;8.346;2023-02-02T09:13:32;101393.34;;;10.10;69.05
19811;BME280;10065;49.632;8.346;2023-02-02T09:16:00;101391.94;;;10.17;68.59
19811;BME280;10065;49.632;8.346;2023-02-02T09:18:29;101393.63;;;10.18;68.14
19811;BME280;10065;49.632;8.346;2023-02-02T09:20:58;101401.31;;;10.22;67.52
19811;BME280;10065;49.632;8.346;2023-02-02T09:23:28;101413.59;;;10.23;67.58
19811;BME280;10065;49.632;8.346;2023-02-02T09:25:56;101410.59;;;10.27;67.66
19811;BME280;10065;49.632;8.346;2023-02-02T09:28:25;101414.19;;;10.26;67.15
19811;BME280;10065;49.632;8.346;2023-02-02T09:30:53;101411.22;;;10.20;67.37
19811;BME280;10065;49.632;8.346;2023-02-02T09:33:21;101411.78;;;10.23;67.42
19811;BME280;10065;49.632;8.346;2023-02-02T09:35:49;101400.59;;;10.20;67.33
19811;BME280;10065;49.632;8.346;2023-02-02T09:38:17;101407.44;;;10.22;67.08
19811;BME280;10065;49.632;8.346;2023-02-02T09:40:44;101408.28;;;10.23;67.03
19811;BME280;10065;49.632;8.346;2023-02-02T09:43:23;101413.34;;;10.26;66.71
19811;BME280;10065;49.632;8.346;2023-02-02T09:46:04;101418.88;;;10.34;66.60
19811;BME280;10065;49.632;8.346;2023-02-02T09:48:43;101424.41;;;10.31;66.31
19811;BME280;10065;49.632;8.346;2023-02-02T09:51:15;101419.38;;;10.28;66.48
19811;BME280;10065;49.632;8.346;2023-02-02T09:53:48;101414.78;;;10.30;66.40
19811;BME280;10065;49.632;8.346;2023-02-02T09:56:45;101418.03;;;10.33;66.49
19811;BME280;10065;49.632;8.346;2023-02-02T09:59:19;101418.16;;;10.32;66.31
19811;BME280;10065;49.632;8.346;2023-02-02T10:01:54;101411.78;;;10.34;66.15
19811;BME280;10065;49.632;8.346;2023-02-02T10:04:26;101431.41;;;10.21;66.35
19811;BME280;10065;49.632;8.346;2023-02-02T10:07:03;101421.31;;;10.26;66.50
19811;BME280;10065;49.632;8.346;2023-02-02T10:09:39;101424.41;;;10.31;66.12
19811;BME280;10065;49.632;8.346;2023-02-02T10:12:20;101439.63;;;10.29;66.20
19811;BME280;10065;49.632;8.346;2023-02-02T10:14:55;101451.81;;;10.20;66.53
19811;BME280;10065;49.632;8.346;2023-02-02T10:17:37;101452.50;;;10.11;66.84
19811;BME280;10065;49.632;8.346;2023-02-02T10:20:18;101457.66;;;10.12;66.97
19811;BME280;10065;49.632;8.346;2023-02-02T10:22:48;101459.13;;;10.16;67.12
19811;BME280;10065;49.632;8.346;2023-02-02T10:25:19;101467.06;;;10.16;66.93
19811;BME280;10065;49.632;8.346;2023-02-02T10:28:03;101460.34;;;10.24;66.88
19811;BME280;10065;49.632;8.346;2023-02-02T10:30:44;101462.50;;;10.30;66.45
19811;BME280;10065;49.632;8.346;2023-02-02T10:33:20;101463.44;;;10.40;66.21
19811;BME280;10065;49.632;8.346;2023-02-02T10:35:59;101472.88;;;10.44;66.07
19811;BME280;10065;49.632;8.346;2023-02-02T10:38:36;101461.53;;;10.53;65.81
19811;BME280;10065;49.632;8.346;2023-02-02T10:41:15;101453.91;;;10.60;65.75
19811;BME280;10065;49.632;8.346;2023-02-02T10:46:38;101447.75;;;10.59;64.65
19811;BME280;10065;49.632;8.346;2023-02-02T10:49:19;101445.34;;;10.56;64.80
19811;BME280;10065;49.632;8.346;2023-02-02T10:51:56;101449.06;;;10.65;64.83
19811;BME280;10065;49.632;8.346;2023-02-02T10:54:51;101438.53;;;10.74;64.70
19811;BME280;10065;49.632;8.346;2023-02-02T10:57:50;101441.78;;;10.78;64.54
19811;BME280;10065;49.632;8.346;2023-02-02T11:00:23;101441.88;;;10.87;64.05
19811;BME280;10065;49.632;8.346;2023-02-02T11:02:53;101442.84;;;10.86;64.17
19811;BME280;10065;49.632;8.346;2023-02-02T11:05:24;101442.53;;;11.01;63.90
19811;BME280;10065;49.632;8.346;2023-02-02T11:08:13;101449.63;;;11.11;63.42
19811;BME280;10065;49.632;8.346;2023-02-02T11:10:42;101429.88;;;11.25;62.73
19811;BME280;10065;49.632;8.346;2023-02-02T11:13:15;101431.19;;;11.30;62.57
19811;BME280;10065;49.632;8.346;2023-02-02T11:15:43;101428.28;;;11.34;62.16
19811;BME280;10065;49.632;8.346;2023-02-02T11:18:13;101432.59;;;11.55;61.86
19811;BME280;10065;49.632;8.346;2023-02-02T11:20:43;101435.25;;;11.76;61.33
19811;BME280;10065;49.632;8.346;2023-02-02T11:23:16;101426.88;;;11.81;60.99
19811;BME280;10065;49.632;8.346;2023-02-02T11:25:45;101426.66;;;11.73;60.86
19811;BME280;10065;49.632;8.346;2023-02-02T11:28:24;101432.81;;;11.73;60.56
19811;BME280;10065;49.632;8.346;2023-02-02T11:30:56;101435.81;;;11.80;60.16
19811;BME280;10065;49.632;8.346;2023-02-02T11:33:29;101435.72;;;11.70;60.67
19811;BME280;10065;49.632;8.346;2023-02-02T11:36:02;101437.25;;;11.84;60.57
19811;BME280;10065;49.632;8.346;2023-02-02T11:38:30;101438.34;;;11.81;60.51
19811;BME280;10065;49.632;8.346;2023-02-02T11:40:59;101443.56;;;11.72;60.71
19811;BME280;10065;49.632;8.346;2023-02-02T11:43:31;101434.91;;;11.69;60.72
19811;BME280;10065;49.632;8.346;2023-02-02T11:46:01;101433.75;;;11.62;60.15
19811;BME280;10065;49.632;8.346;2023-02-02T11:48:32;101443.09;;;11.78;59.82
19811;BME280;10065;49.632;8.346;2023-02-02T11:51:05;101427.22;;;11.87;58.82
19811;BME280;10065;49.632;8.346;2023-02-02T11:53:38;101426.84;;;12.01;58.19
19811;BME280;10065;49.632;8.346;2023-02-02T11:56:16;101431.22;;;12.12;57.93
19811;BME280;10065;49.632;8.346;2023-02-02T11:58:46;101421.75;;;12.29;56.92
19811;BME280;10065;49.632;8.346;2023-02-02T12:01:23;101414.81;;;12.57;56.75
19811;BME280;10065;49.632;8.346;2023-02-02T12:03:52;101426.56;;;13.02;56.04
19811;BME280;10065;49.632;8.346;2023-02-02T12:06:23;101428.38;;;13.40;54.60
19811;BME280;10065;49.632;8.346;2023-02-02T12:08:55;101426.13;;;13.92;53.85
19811;BME280;10065;49.632;8.346;2023-02-02T12:11:38;101416.09;;;14.41;52.09
19811;BME280;10065;49.632;8.346;2023-02-02T12:14:19;101419.16;;;14.63;50.33
19811;BME280;10065;49.632;8.346;2023-02-02T12:17:00;101426.09;;;14.29;51.24
19811;BME280;10065;49.632;8.346;2023-02-02T12:20:05;101430.34;;;13.94;52.02
19811;BME280;10065;49.632;8.346;2023-02-02T12:25:56;101420.56;;;13.29;54.35
19811;BME280;10065;49.632;8.346;2023-02-02T12:28:41;101413.97;;;12.85;54.98
19811;BME280;10065;49.632;8.346;2023-02-02T12:31:18;101418.59;;;12.64;55.63
19811;BME280;10065;49.632;8.346;2023-02-02T12:33:54;101427.25;;;12.56;56.27
19811;BME280;10065;49.632;8.346;2023-02-02T12:36:42;101432.16;;;12.61;56.52
19811;BME280;10065;49.632;8.346;2023-02-02T12:39:26;101427.53;;;12.63;56.86
19811;BME280;10065;49.632;8.346;2023-02-02T12:42:16;101419.72;;;12.80;56.29
19811;BME280;10065;49.632;8.346;2023-02-02T12:45:03;101409.22;;;12.98;55.00
19811;BME280;10065;49.632;8.346;2023-02-02T12:47:43;101411.91;;;13.17;54.36
19811;BME280;10065;49.632;8.346;2023-02-02T12:50:23;101396.44;;;13.31;54.03
19811;BME280;10065;49.632;8.346;2023-02-02T12:53:18;101404.16;;;13.34;53.79
19811;BME280;10065;49.632;8.346;2023-02-02T12:55:57;101414.25;;;13.21;53.68
19811;BME280;10065;49.632;8.346;2023-02-02T12:58:31;101412.84;;;13.36;53.84
19811;BME280;10065;49.632;8.346;2023-02-02T13:01:15;101415.06;;;13.50;53.84
19811;BME280;10065;49.632;8.346;2023-02-02T13:03:54;101418.00;;;13.47;53.77
19811;BME280;10065;49.632;8.346;2023-02-02T13:06:49;101421.81;;;13.35;53.65
19811;BME280;10065;49.632;8.346;2023-02-02T13:09:25;101422.09;;;13.32;54.40
19811;BME280;10065;49.632;8.346;2023-02-02T13:12:00;101426.72;;;13.30;54.34
19811;BME280;10065;49.632;8.346;2023-02-02T13:14:31;101418.91;;;13.18;53.99
19811;BME280;10065;49.632;8.346;2023-02-02T13:17:06;101415.38;;;13.08;54.44
19811;BME280;10065;49.632;8.346;2023-02-02T13:19:39;101417.59;;;13.03;54.42
19811;BME280;10065;49.632;8.346;2023-02-02T13:22:15;101424.06;;;13.10;54.41
19811;BME280;10065;49.632;8.346;2023-02-02T13:24:47;101424.50;;;13.15;54.29
19811;BME280;10065;49.632;8.346;2023-02-02T13:27:19;101427.56;;;13.21;54.18
19811;BME280;10065;49.632;8.346;2023-02-02T13:29:51;101436.28;;;13.23;54.13
19811;BME280;10065;49.632;8.346;2023-02-02T13:32:24;101432.63;;;13.24;53.91
19811;BME280;10065;49.632;8.346;2023-02-02T13:34:55;101435.00;;;13.27;54.05
19811;BME280;10065;49.632;8.346;2023-02-02T13:37:31;101432.22;;;13.18;53.81